Time;durP1;ratioP1;P1;durP2;ratioP2;P2;SDS_P1;SDS_P2;PMS_P1;PMS_P2;Temp;Humidity;BMP_temperature;BMP_pressure;BME280_temperature;BME280_humidity;BME280_pressure;Samples;Min_cycle;Max_cycle;Signal;HPM_P1;HPM_P2
2024/02/16 00:00:58;;;;;;;6.10;4.37;;;;;;;9.51;100.00;98013.34;5074175;28;20665;-77
2024/02/16 00:03:25;;;;;;;7.10;4.80;;;;;;;9.54;100.00;98007.88;5073991;28;20240;-77
2024/02/16 00:05:51;;;;;;;6.43;4.70;;;;;;;9.56;100.00;97998.91;5073365;28;20218;-77
2024/02/16 00:08:18;;;;;;;10.07;5.30;;;;;;;9.57;100.00;98005.00;5074834;28;20212;-78
2024/02/16 00:10:45;;;;;;;6.80;4.97;;;;;;;9.60;100.00;98004.81;5072384;28;20214;-76
2024/02/16 00:13:11;;;;;;;8.90;5.73;;;;;;;9.58;100.00;98004.91;5072015;28;20234;-77
2024/02/16 00:15:40;;;;;;;7.07;4.83;;;;;;;9.59;100.00;98001.31;5072187;28;20210;-77
2024/02/16 00:18:06;;;;;;;10.37;5.47;;;;;;;9.63;100.00;97999.31;5071694;28;20608;-77
2024/02/16 00:20:33;;;;;;;9.27;4.90;;;;;;;9.62;100.00;98002.91;5073423;28;20689;-77
2024/02/16 00:23:00;;;;;;;8.13;5.27;;;;;;;9.65;100.00;98010.59;5072050;28;20234;-77
2024/02/16 00:25:26;;;;;;;7.57;5.43;;;;;;;9.63;100.00;98007.22;5073350;28;20211;-77
2024/02/16 00:27:53;;;;;;;8.33;5.80;;;;;;;9.69;100.00;97997.13;5073244;28;20229;-77
2024/02/16 00:30:20;;;;;;;9.07;6.07;;;;;;;9.67;100.00;98001.63;5073104;28;20218;-77
2024/02/16 00:32:47;;;;;;;8.33;5.50;;;;;;;9.63;100.00;98001.97;5072577;28;20714;-77
2024/02/16 00:35:16;;;;;;;8.37;6.00;;;;;;;9.60;100.00;97999.53;5071968;28;20267;-77
2024/02/16 00:37:42;;;;;;;10.87;6.43;;;;;;;9.53;100.00;98000.88;5072256;28;20238;-77
2024/02/16 00:40:10;;;;;;;9.80;5.50;;;;;;;9.46;100.00;98002.22;5072637;28;20693;-77
2024/02/16 00:42:37;;;;;;;8.30;5.40;;;;;;;9.41;100.00;98004.31;5072172;28;20219;-77
2024/02/16 00:45:04;;;;;;;7.97;4.77;;;;;;;9.41;100.00;97999.91;5072571;28;20676;-77
2024/02/16 00:47:31;;;;;;;7.73;5.17;;;;;;;9.44;100.00;98001.50;5072326;28;20215;-77
2024/02/16 00:49:59;;;;;;;8.10;5.43;;;;;;;9.47;100.00;97998.66;5072793;28;20209;-77
2024/02/16 00:52:26;;;;;;;8.23;5.40;;;;;;;9.50;100.00;97993.19;5072495;28;20344;-77
2024/02/16 00:54:53;;;;;;;7.27;5.27;;;;;;;9.50;100.00;97993.19;5072604;28;20211;-77
2024/02/16 00:57:19;;;;;;;8.43;5.47;;;;;;;9.54;100.00;97992.03;5072259;28;20578;-77
2024/02/16 00:59:45;;;;;;;7.73;6.10;;;;;;;9.63;100.00;97984.34;5072232;28;20227;-77
2024/02/16 01:02:12;;;;;;;8.70;6.03;;;;;;;9.60;100.00;97984.53;5072060;28;20231;-77
2024/02/16 01:04:38;;;;;;;6.87;5.17;;;;;;;9.44;100.00;97994.44;5072050;28;20218;-77
2024/02/16 01:07:06;;;;;;;9.23;6.10;;;;;;;9.39;100.00;97991.28;5072233;28;20215;-77
2024/02/16 01:09:33;;;;;;;8.17;6.03;;;;;;;9.40;100.00;97992.09;5071836;28;20211;-77
2024/02/16 01:11:59;;;;;;;7.63;5.20;;;;;;;9.38;100.00;97999.28;5071915;28;20237;-77
2024/02/16 01:14:26;;;;;;;8.87;4.97;;;;;;;9.33;100.00;97998.72;5072315;28;20217;-77
2024/02/16 01:16:52;;;;;;;8.13;4.83;;;;;;;9.35;100.00;98010.88;5071797;28;20223;-77
2024/02/16 01:19:19;;;;;;;6.30;4.77;;;;;;;9.28;100.00;98003.44;5071863;28;20207;-79
2024/02/16 01:21:47;;;;;;;6.57;4.57;;;;;;;9.21;100.00;97999.53;5072087;28;20535;-77
2024/02/16 01:24:15;;;;;;;5.73;4.10;;;;;;;9.22;100.00;98004.72;5071992;28;20415;-77
2024/02/16 01:26:41;;;;;;;5.33;4.63;;;;;;;9.21;100.00;97997.75;5071607;28;20199;-77
2024/02/16 01:29:08;;;;;;;5.10;3.73;;;;;;;9.20;100.00;97997.84;5071672;28;20688;-77
2024/02/16 01:31:36;;;;;;;4.77;3.70;;;;;;;9.22;100.00;97993.31;5071685;28;20234;-77
2024/02/16 01:34:02;;;;;;;4.73;3.70;;;;;;;9.22;100.00;97988.03;5071494;28;20211;-77
2024/02/16 01:36:29;;;;;;;4.97;3.53;;;;;;;9.20;100.00;97995.22;5071303;28;20677;-77
2024/02/16 01:38:55;;;;;;;5.90;3.40;;;;;;;9.22;100.00;97990.66;5071471;28;20272;-77
2024/02/16 01:41:23;;;;;;;5.20;3.63;;;;;;;9.23;100.00;97984.47;5071546;28;20233;-77
2024/02/16 01:43:53;;;;;;;6.30;3.80;;;;;;;9.30;100.00;97991.03;5071658;28;20213;-77
2024/02/16 01:46:19;;;;;;;6.63;3.90;;;;;;;9.29;100.00;97990.19;5072960;28;20635;-77
2024/02/16 01:48:46;;;;;;;7.00;4.30;;;;;;;9.26;100.00;97994.81;5075293;28;20214;-77
2024/02/16 01:51:14;;;;;;;6.67;4.57;;;;;;;9.31;100.00;97983.00;5074894;28;20208;-77
2024/02/16 01:53:41;;;;;;;6.77;4.50;;;;;;;9.25;100.00;97983.41;5075195;28;20213;-77
2024/02/16 01:56:08;;;;;;;5.97;4.50;;;;;;;9.23;100.00;97992.38;5074888;28;20207;-77
2024/02/16 01:58:36;;;;;;;5.03;4.00;;;;;;;9.21;100.00;97986.34;5074778;28;20235;-77
2024/02/16 02:01:03;;;;;;;7.30;4.90;;;;;;;9.22;100.00;97990.66;5075158;28;20207;-77
2024/02/16 02:03:30;;;;;;;8.77;4.70;;;;;;;9.21;100.00;97991.63;5075504;28;20219;-77
2024/02/16 02:05:57;;;;;;;10.97;5.37;;;;;;;9.31;100.00;97996.19;5075351;28;20209;-77
2024/02/16 02:08:23;;;;;;;9.03;5.60;;;;;;;9.33;100.00;97988.19;5075063;28;20669;-77
2024/02/16 02:10:50;;;;;;;8.20;5.50;;;;;;;9.32;100.00;97981.22;5075497;28;20207;-77
2024/02/16 02:13:16;;;;;;;9.87;6.37;;;;;;;9.32;100.00;97978.59;5074970;28;20235;-77
2024/02/16 02:15:44;;;;;;;7.80;5.13;;;;;;;9.35;100.00;97981.00;5074487;28;20227;-77
2024/02/16 02:18:11;;;;;;;7.27;5.30;;;;;;;9.31;100.00;97974.25;5074854;28;20262;-77
2024/02/16 02:20:37;;;;;;;7.47;5.30;;;;;;;9.26;100.00;97974.56;5074916;28;20221;-77
2024/02/16 02:23:05;;;;;;;6.47;4.70;;;;;;;9.24;100.00;97965.06;5074813;28;20235;-77
2024/02/16 02:25:32;;;;;;;6.07;4.50;;;;;;;9.23;100.00;97968.66;5074669;28;20206;-77
2024/02/16 02:27:58;;;;;;;6.47;4.43;;;;;;;9.22;100.00;97969.56;5074689;28;20237;-77
2024/02/16 02:30:25;;;;;;;8.57;4.23;;;;;;;9.19;100.00;97964.53;5074470;28;20215;-77
2024/02/16 02:32:51;;;;;;;6.87;4.13;;;;;;;9.17;100.00;97961.16;5074871;28;20735;-77
2024/02/16 02:35:19;;;;;;;5.97;3.73;;;;;;;9.19;100.00;97967.16;5074820;28;20264;-77
2024/02/16 02:37:45;;;;;;;5.93;3.87;;;;;;;9.21;100.00;97966.13;5073937;28;20235;-77
2024/02/16 02:40:14;;;;;;;4.33;3.27;;;;;;;9.22;100.00;97966.94;5074944;28;20601;-77
2024/02/16 02:42:40;;;;;;;5.53;3.53;;;;;;;9.21;100.00;97960.84;5074694;28;20224;-78
2024/02/16 02:45:08;;;;;;;4.57;3.37;;;;;;;9.23;100.00;97958.13;5074858;28;20211;-78
2024/02/16 02:47:35;;;;;;;4.03;3.10;;;;;;;9.28;100.00;97959.47;5075919;28;20232;-77
2024/02/16 02:50:01;;;;;;;4.07;2.97;;;;;;;9.26;100.00;97952.63;5075490;28;20211;-77
2024/02/16 02:52:28;;;;;;;3.57;3.20;;;;;;;9.25;100.00;97943.84;5074646;28;20229;-77
2024/02/16 02:54:54;;;;;;;5.30;3.43;;;;;;;9.23;100.00;97939.66;5074571;28;20681;-78
2024/02/16 02:57:22;;;;;;;3.93;3.10;;;;;;;9.18;100.00;97947.03;5073661;28;20230;-77
2024/02/16 02:59:49;;;;;;;5.27;2.87;;;;;;;9.17;100.00;97947.97;5074384;28;20222;-77
2024/02/16 03:02:16;;;;;;;4.83;3.20;;;;;;;9.14;100.00;97946.38;5074409;28;20230;-77
2024/02/16 03:04:42;;;;;;;4.13;3.20;;;;;;;9.16;100.00;97943.63;5074607;28;20245;-78
2024/02/16 03:07:09;;;;;;;4.57;3.63;;;;;;;9.18;100.00;97944.38;5074665;28;20206;-77
2024/02/16 03:09:35;;;;;;;5.60;3.80;;;;;;;9.14;100.00;97938.47;5074270;28;20214;-78
2024/02/16 03:12:02;;;;;;;5.10;3.90;;;;;;;9.12;100.00;97934.25;5074278;28;20742;-77
2024/02/16 03:14:29;;;;;;;4.93;3.93;;;;;;;9.10;100.00;97936.13;5074697;28;20214;-77
2024/02/16 03:16:56;;;;;;;4.80;3.87;;;;;;;9.10;100.00;97936.13;5074432;28;20211;-77
2024/02/16 03:19:22;;;;;;;5.83;3.80;;;;;;;9.08;100.00;97938.88;5073842;28;20629;-78
2024/02/16 03:21:49;;;;;;;5.37;3.60;;;;;;;9.09;100.00;97934.44;5074168;28;20231;-77
2024/02/16 03:24:15;;;;;;;5.53;3.70;;;;;;;9.07;100.00;97934.53;5074102;28;20221;-77
2024/02/16 03:26:42;;;;;;;4.97;3.60;;;;;;;9.07;100.00;97938.97;5074056;28;20217;-77
2024/02/16 03:29:08;;;;;;;4.23;3.57;;;;;;;9.03;100.00;97938.31;5074032;28;20214;-77
2024/02/16 03:31:36;;;;;;;5.27;3.70;;;;;;;9.00;100.00;97945.59;5074130;28;20232;-77
2024/02/16 03:34:03;;;;;;;5.27;3.60;;;;;;;8.96;100.00;97938.81;5073496;28;20701;-78
2024/02/16 03:36:30;;;;;;;6.03;4.10;;;;;;;8.94;100.00;97940.72;5073512;28;20671;-78
2024/02/16 03:38:57;;;;;;;6.83;4.80;;;;;;;8.95;100.00;97943.28;5072618;28;20272;-77
2024/02/16 03:41:24;;;;;;;7.97;5.50;;;;;;;8.91;100.00;97956.72;5073088;28;20237;-77
2024/02/16 03:43:50;;;;;;;8.97;5.73;;;;;;;8.94;100.00;97954.72;5073364;28;20264;-78
2024/02/16 03:46:17;;;;;;;7.53;5.80;;;;;;;8.95;100.00;97952.97;5073580;28;20230;-77
2024/02/16 03:48:45;;;;;;;8.30;5.80;;;;;;;8.95;100.00;97963.50;5073366;28;20206;-78
2024/02/16 03:51:12;;;;;;;8.07;5.97;;;;;;;8.93;100.00;97963.59;5073139;28;20267;-78
2024/02/16 03:53:38;;;;;;;9.90;5.83;;;;;;;8.90;100.00;97955.91;5073265;28;20569;-77
2024/02/16 03:56:07;;;;;;;8.50;6.17;;;;;;;8.87;100.00;97965.78;5073294;28;20220;-78
2024/02/16 03:58:33;;;;;;;7.47;6.27;;;;;;;8.83;100.00;97969.56;5073090;28;20702;-77
2024/02/16 04:01:00;;;;;;;7.87;5.90;;;;;;;8.80;100.00;97967.09;5072960;28;20215;-77
2024/02/16 04:03:27;;;;;;;10.87;5.97;;;;;;;8.75;100.00;97966.59;5072911;28;20210;-77
2024/02/16 04:05:55;;;;;;;7.20;5.57;;;;;;;8.79;100.00;97971.56;5072754;28;20657;-78
2024/02/16 04:08:21;;;;;;;8.73;5.93;;;;;;;8.80;100.00;97969.75;5072450;28;20208;-77
2024/02/16 04:10:48;;;;;;;6.70;5.60;;;;;;;8.70;100.00;97971.31;5071734;28;20670;-77
2024/02/16 04:13:14;;;;;;;6.77;5.20;;;;;;;8.69;100.00;97967.81;5072740;28;20233;-77
2024/02/16 04:15:41;;;;;;;8.30;5.57;;;;;;;8.77;100.00;97964.69;5072815;28;20237;-78
2024/02/16 04:18:07;;;;;;;7.47;5.93;;;;;;;8.87;100.00;97960.53;5073284;28;20237;-81
2024/02/16 04:20:34;;;;;;;6.77;4.97;;;;;;;8.89;100.00;97964.75;5075116;28;20211;-77
2024/02/16 04:23:02;;;;;;;6.63;5.30;;;;;;;8.82;100.00;97965.25;5078201;28;20237;-78
2024/02/16 04:25:29;;;;;;;6.10;5.10;;;;;;;8.73;100.00;97964.03;5081708;28;20313;-78
2024/02/16 04:27:55;;;;;;;4.97;4.27;;;;;;;8.70;100.00;97968.66;5075505;28;20624;-78
2024/02/16 04:30:25;;;;;;;6.43;4.57;;;;;;;8.68;100.00;97970.53;5075694;28;20575;-78
2024/02/16 04:32:52;;;;;;;4.97;3.60;;;;;;;8.65;100.00;97976.00;5075747;28;20266;-77
2024/02/16 04:35:19;;;;;;;4.40;3.77;;;;;;;8.70;100.00;97968.66;5075763;28;20235;-77
2024/02/16 04:37:45;;;;;;;5.23;3.43;;;;;;;8.73;100.00;97971.09;5075628;28;20579;-77
2024/02/16 04:40:13;;;;;;;4.93;3.63;;;;;;;8.79;100.00;97981.25;5074608;28;20223;-78
2024/02/16 04:42:41;;;;;;;5.40;3.90;;;;;;;8.84;100.00;97971.25;5074505;28;20333;-78
2024/02/16 04:45:08;;;;;;;7.77;4.63;;;;;;;8.90;100.00;97976.97;5074807;28;20232;-78
2024/02/16 04:47:35;;;;;;;6.30;4.90;;;;;;;8.96;100.00;97978.38;5073905;28;20216;-77
2024/02/16 04:50:01;;;;;;;7.17;4.57;;;;;;;9.01;100.00;97974.47;5074131;28;20297;-78
2024/02/16 04:52:28;;;;;;;7.20;4.80;;;;;;;9.06;100.00;97974.19;5074712;28;20234;-78
2024/02/16 04:54:54;;;;;;;6.67;4.97;;;;;;;9.11;100.00;97980.00;5074358;28;20591;-78
2024/02/16 04:57:22;;;;;;;9.83;5.40;;;;;;;9.16;100.00;97977.88;5074538;28;20210;-78
2024/02/16 04:59:48;;;;;;;6.77;4.93;;;;;;;9.15;100.00;97970.94;5074586;28;20284;-77
2024/02/16 05:02:15;;;;;;;8.00;5.20;;;;;;;9.15;100.00;97976.22;5074386;28;20233;-78
2024/02/16 05:04:41;;;;;;;6.50;4.50;;;;;;;9.14;100.00;97978.03;5075202;28;20206;-77
2024/02/16 05:07:08;;;;;;;7.27;4.50;;;;;;;9.12;100.00;97979.06;5075360;28;20208;-77
2024/02/16 05:09:34;;;;;;;5.67;4.27;;;;;;;9.13;100.00;97972.84;5075246;28;20210;-78
2024/02/16 05:12:02;;;;;;;5.50;4.27;;;;;;;9.11;100.00;97974.75;5075221;28;20232;-77
2024/02/16 05:14:30;;;;;;;6.07;4.73;;;;;;;9.06;100.00;97982.09;5075597;28;20215;-77
2024/02/16 05:16:56;;;;;;;5.63;4.50;;;;;;;9.08;100.00;97986.31;5075336;28;20211;-77
2024/02/16 05:19:23;;;;;;;6.13;4.53;;;;;;;9.08;100.00;97980.19;5075187;28;20333;-77
2024/02/16 05:21:49;;;;;;;6.93;4.80;;;;;;;9.08;100.00;97986.31;5077837;28;20227;-78
2024/02/16 05:24:16;;;;;;;7.27;5.40;;;;;;;9.05;100.00;97985.69;5079409;28;20222;-77
2024/02/16 05:26:42;;;;;;;6.57;4.53;;;;;;;9.04;100.00;97983.97;5079903;28;20226;-77
2024/02/16 05:29:08;;;;;;;6.33;4.47;;;;;;;9.01;100.00;97992.09;5079192;28;20215;-77
2024/02/16 05:31:36;;;;;;;6.47;4.80;;;;;;;8.99;100.00;97991.34;5078876;28;20564;-77
2024/02/16 05:34:03;;;;;;;6.03;4.00;;;;;;;8.97;100.00;97996.72;5078385;28;20220;-78
2024/02/16 05:36:35;;;;;;;7.10;4.90;;;;;;;8.98;100.00;97994.91;5079264;28;20212;-77
2024/02/16 05:39:09;;;;;;;6.37;4.50;;;;;;;8.98;100.00;97995.78;5079020;28;20614;-77
2024/02/16 05:41:37;;;;;;;5.27;4.40;;;;;;;8.95;100.00;97995.97;5079283;28;20601;-77
2024/02/16 05:44:05;;;;;;;5.40;4.60;;;;;;;8.97;100.00;97994.09;5079682;28;20555;-77
2024/02/16 05:46:32;;;;;;;6.77;4.87;;;;;;;9.00;100.00;97993.03;5079405;28;20224;-77
2024/02/16 05:49:02;;;;;;;8.27;4.80;;;;;;;8.93;100.00;97994.38;5078954;28;20204;-77
2024/02/16 05:51:29;;;;;;;6.77;4.87;;;;;;;8.85;100.00;97994.00;5079689;28;20230;-78
2024/02/16 05:53:55;;;;;;;5.87;4.80;;;;;;;8.80;100.00;97996.09;5078743;28;20214;-77
2024/02/16 05:56:22;;;;;;;7.87;5.23;;;;;;;8.82;100.00;98004.78;5077443;28;20614;-77
2024/02/16 05:58:50;;;;;;;6.27;5.03;;;;;;;8.72;100.00;98004.50;5080662;28;20234;-78
2024/02/16 06:01:16;;;;;;;7.00;4.73;;;;;;;8.68;100.00;98007.41;5081550;28;20260;-77
2024/02/16 06:03:43;;;;;;;8.73;4.90;;;;;;;8.68;100.00;98017.97;5080855;28;20214;-78
2024/02/16 06:06:11;;;;;;;7.97;4.53;;;;;;;8.63;100.00;98009.53;5079918;28;20205;-77
2024/02/16 06:08:37;;;;;;;7.83;5.07;;;;;;;8.65;100.00;98013.75;5076145;28;20222;-78
2024/02/16 06:11:04;;;;;;;6.43;4.83;;;;;;;8.64;100.00;98017.31;5074597;28;20218;-77
2024/02/16 06:13:30;;;;;;;5.97;4.60;;;;;;;8.66;100.00;98019.84;5075063;28;20320;-77
2024/02/16 06:15:57;;;;;;;6.50;4.73;;;;;;;8.66;100.00;98020.72;5074404;28;20703;-77
2024/02/16 06:18:24;;;;;;;6.60;4.80;;;;;;;8.70;100.00;98026.63;5074481;28;20292;-77
2024/02/16 06:20:51;;;;;;;6.10;4.50;;;;;;;8.64;100.00;98022.56;5074578;28;20301;-78
2024/02/16 06:23:18;;;;;;;6.10;4.57;;;;;;;8.63;100.00;98031.44;5074725;28;20609;-77
2024/02/16 06:25:45;;;;;;;6.50;4.80;;;;;;;8.65;100.00;98039.25;5074366;28;20682;-77
2024/02/16 06:28:11;;;;;;;6.73;4.13;;;;;;;8.64;100.00;98037.56;5074415;28;20217;-77
2024/02/16 06:30:38;;;;;;;4.93;3.93;;;;;;;8.68;100.00;98045.16;5074544;28;20597;-78
2024/02/16 06:33:05;;;;;;;5.00;4.00;;;;;;;8.79;100.00;98041.84;5072920;28;20232;-78
2024/02/16 06:35:31;;;;;;;5.53;4.50;;;;;;;8.85;100.00;98036.19;5074383;28;20214;-77
2024/02/16 06:37:58;;;;;;;5.37;4.57;;;;;;;8.87;100.00;98034.31;5074565;28;20211;-77
2024/02/16 06:40:27;;;;;;;4.63;4.10;;;;;;;8.84;100.00;98045.03;5074616;28;20223;-77
2024/02/16 06:42:54;;;;;;;5.93;4.57;;;;;;;8.81;100.00;98040.81;5074474;28;20324;-77
2024/02/16 06:45:20;;;;;;;6.73;4.77;;;;;;;8.78;100.00;98045.44;5074380;28;20219;-77
2024/02/16 06:47:47;;;;;;;8.17;4.60;;;;;;;8.76;100.00;98048.16;5074410;28;20679;-77
2024/02/16 06:50:13;;;;;;;5.47;3.83;;;;;;;8.75;100.00;98057.00;5074460;28;20207;-77
2024/02/16 06:52:40;;;;;;;7.03;4.53;;;;;;;8.74;100.00;98057.94;5074294;28;20233;-77
2024/02/16 06:55:08;;;;;;;5.87;4.10;;;;;;;8.76;100.00;98053.41;5074606;28;20220;-77
2024/02/16 06:57:35;;;;;;;6.40;4.60;;;;;;;8.78;100.00;98056.81;5074386;28;20886;-77
2024/02/16 07:00:03;;;;;;;5.80;4.03;;;;;;;8.80;100.00;98054.06;5074501;28;20229;-77
2024/02/16 07:02:29;;;;;;;7.80;4.90;;;;;;;8.90;100.00;98060.47;5074356;28;20229;-77
2024/02/16 07:04:56;;;;;;;7.53;4.50;;;;;;;8.91;100.00;98062.16;5074185;28;20209;-77
2024/02/16 07:07:22;;;;;;;5.73;4.37;;;;;;;8.77;100.00;98070.09;5073915;28;20205;-77
2024/02/16 07:09:49;;;;;;;7.53;4.30;;;;;;;8.74;100.00;98073.75;5074419;28;20216;-77
2024/02/16 07:12:15;;;;;;;8.00;4.70;;;;;;;8.69;100.00;98083.72;5074016;28;20719;-77
2024/02/16 07:14:43;;;;;;;6.03;4.57;;;;;;;8.71;100.00;98086.28;5073781;28;20213;-77
2024/02/16 07:17:10;;;;;;;6.23;4.53;;;;;;;8.74;100.00;98088.72;5074435;28;20210;-77
2024/02/16 07:19:37;;;;;;;5.97;4.37;;;;;;;8.79;100.00;98089.28;5074844;28;20774;-78
2024/02/16 07:22:06;;;;;;;4.93;4.20;;;;;;;8.84;100.00;98092.47;5081436;28;20367;-78
2024/02/16 07:24:32;;;;;;;5.07;4.10;;;;;;;8.91;100.00;98084.09;5079234;28;20213;-75
2024/02/16 07:26:59;;;;;;;5.37;4.17;;;;;;;9.01;100.00;98079.09;5072777;28;20215;-76
2024/02/16 07:29:25;;;;;;;5.93;4.33;;;;;;;9.05;100.00;98091.13;5072315;28;20206;-75
2024/02/16 07:31:56;;;;;;;5.03;4.10;;;;;;;9.10;100.00;98089.03;5081458;28;20785;-75
2024/02/16 07:34:23;;;;;;;6.00;4.37;;;;;;;9.16;100.00;98092.13;5092635;28;20653;-75
2024/02/16 07:36:49;;;;;;;5.33;4.20;;;;;;;9.20;100.00;98095.41;5092997;28;20354;-77
2024/02/16 07:39:16;;;;;;;5.17;3.70;;;;;;;9.22;100.00;98091.72;5092373;28;20601;-77
2024/02/16 07:41:42;;;;;;;4.93;4.03;;;;;;;9.25;100.00;98088.06;5094412;28;20732;-79
2024/02/16 07:44:09;;;;;;;7.17;4.33;;;;;;;9.22;100.00;98088.25;5093338;28;20291;-77
2024/02/16 07:46:41;;;;;;;6.10;4.03;;;;;;;9.23;100.00;98093.41;5093820;28;20217;-77
2024/02/16 07:49:10;;;;;;;4.63;3.50;;;;;;;9.21;100.00;98091.81;5094205;28;20225;-77
2024/02/16 07:51:38;;;;;;;7.70;4.23;;;;;;;9.21;100.00;98086.56;5095244;28;20321;-77
2024/02/16 07:54:05;;;;;;;5.57;3.90;;;;;;;9.18;100.00;98084.97;5094126;28;20210;-77
2024/02/16 07:56:32;;;;;;;4.97;4.00;;;;;;;9.16;100.00;98092.13;5096589;28;20209;-78
2024/02/16 07:58:58;;;;;;;5.20;3.73;;;;;;;9.12;100.00;98093.25;5102424;28;20210;-79
2024/02/16 08:01:25;;;;;;;5.00;3.63;;;;;;;9.09;100.00;98092.59;5097822;28;20744;-79
2024/02/16 08:03:52;;;;;;;5.93;3.70;;;;;;;9.03;100.00;98091.22;5097921;28;20207;-78
2024/02/16 08:06:26;;;;;;;5.90;4.10;;;;;;;8.95;100.00;98103.19;5096615;28;20241;-78
2024/02/16 08:08:53;;;;;;;5.57;4.03;;;;;;;8.89;100.00;98103.56;5094300;28;20574;-78
2024/02/16 08:11:20;;;;;;;5.03;3.93;;;;;;;8.85;100.00;98107.34;5095247;28;20236;-78
2024/02/16 08:13:46;;;;;;;6.33;4.23;;;;;;;8.85;100.00;98102.94;5098751;28;20209;-80
2024/02/16 08:16:13;;;;;;;5.90;4.23;;;;;;;8.94;100.00;98110.25;5099692;28;20212;-80
2024/02/16 08:18:39;;;;;;;5.20;4.40;;;;;;;9.14;100.00;98114.25;5100233;28;20567;-79
2024/02/16 08:21:06;;;;;;;6.30;4.87;;;;;;;9.49;100.00;98112.84;5101152;28;20214;-81
2024/02/16 08:23:34;;;;;;;5.53;4.60;;;;;;;9.88;100.00;98107.56;5099419;28;20218;-79
2024/02/16 08:26:00;;;;;;;6.57;4.53;;;;;;;10.36;100.00;98107.78;5100398;28;20225;-78
2024/02/16 08:28:27;;;;;;;6.63;4.93;;;;;;;10.76;100.00;98095.28;5101548;28;20211;-79
2024/02/16 08:30:54;;;;;;;9.70;5.60;;;;;;;11.00;100.00;98098.84;5102850;28;20219;-79
2024/02/16 08:33:21;;;;;;;8.17;4.87;;;;;;;11.21;100.00;98082.28;5103196;28;20239;-79
2024/02/16 08:35:47;;;;;;;6.23;4.30;;;;;;;11.44;100.00;98088.53;5099288;28;20211;-84
2024/02/16 08:38:14;;;;;;;7.05;4.72;;;;;;;11.65;100.00;98076.38;5095901;28;20428;-82
2024/02/16 08:40:42;;;;;;;6.87;4.50;;;;;;;11.85;100.00;98073.06;5097278;28;20226;-82
2024/02/16 08:43:08;;;;;;;6.97;5.10;;;;;;;12.01;99.83;98063.03;5098822;28;20690;-82
2024/02/16 08:45:35;;;;;;;5.13;4.17;;;;;;;12.11;97.70;98053.44;5097070;28;20212;-82
2024/02/16 08:48:03;;;;;;;5.00;4.03;;;;;;;12.16;96.17;98056.56;5097561;28;20213;-81
2024/02/16 08:50:30;;;;;;;6.47;4.17;;;;;;;12.20;94.93;98052.72;5097652;28;20213;-81
2024/02/16 08:52:56;;;;;;;6.60;4.20;;;;;;;12.36;94.62;98061.19;5098637;28;20241;-81
2024/02/16 08:55:23;;;;;;;7.67;4.40;;;;;;;12.42;93.29;98047.44;5100897;28;20218;-78
2024/02/16 08:57:51;;;;;;;5.47;4.13;;;;;;;12.51;93.99;98052.88;5100470;28;20217;-78
2024/02/16 09:00:17;;;;;;;7.03;4.57;;;;;;;12.54;94.36;98059.75;5101109;28;20335;-78
2024/02/16 09:02:45;;;;;;;5.77;4.00;;;;;;;12.61;93.62;98058.31;5100833;28;20603;-78
2024/02/16 09:05:12;;;;;;;4.53;3.60;;;;;;;12.63;92.48;98056.34;5098155;28;20211;-78
2024/02/16 09:07:38;;;;;;;5.97;4.00;;;;;;;12.71;91.28;98053.97;5096808;28;20227;-78
2024/02/16 09:10:06;;;;;;;6.70;3.87;;;;;;;12.75;90.49;98050.09;5098389;28;20203;-78
2024/02/16 09:12:32;;;;;;;6.53;3.90;;;;;;;12.87;89.21;98043.81;5098369;28;20227;-78
2024/02/16 09:15:00;;;;;;;5.63;3.53;;;;;;;12.95;88.97;98046.72;5097982;28;20214;-78
2024/02/16 09:17:27;;;;;;;4.87;3.70;;;;;;;13.04;88.09;98046.00;5098950;28;20296;-78
2024/02/16 09:19:53;;;;;;;5.30;3.60;;;;;;;13.12;87.08;98044.41;5098327;28;20717;-78
2024/02/16 09:22:20;;;;;;;4.77;3.70;;;;;;;13.21;86.32;98035.69;5098994;28;20237;-78
2024/02/16 09:24:46;;;;;;;5.63;4.20;;;;;;;13.33;84.86;98029.41;5099307;28;20297;-78
2024/02/16 09:27:13;;;;;;;7.87;4.53;;;;;;;13.46;81.48;98026.59;5098593;28;20240;-78
2024/02/16 09:29:39;;;;;;;6.20;4.00;;;;;;;13.62;80.18;98019.06;5097915;28;20215;-78
2024/02/16 09:32:08;;;;;;;7.30;4.13;;;;;;;13.81;78.26;98017.38;5097543;28;20228;-79
2024/02/16 09:34:34;;;;;;;4.90;4.00;;;;;;;14.00;76.11;98012.19;5099585;28;20599;-79
2024/02/16 09:37:01;;;;;;;5.43;3.37;;;;;;;14.14;72.93;97992.41;5097028;28;20209;-77
2024/02/16 09:39:28;;;;;;;8.63;4.13;;;;;;;14.25;74.15;98011.81;5090847;28;20242;-77
2024/02/16 09:41:55;;;;;;;5.20;3.57;;;;;;;14.42;74.76;98024.50;5090981;28;20319;-77
2024/02/16 09:44:23;;;;;;;5.47;3.50;;;;;;;14.58;75.09;98029.34;5091186;28;20693;-79
2024/02/16 09:46:52;;;;;;;4.63;3.67;;;;;;;14.64;74.86;98039.44;5093413;28;20301;-81
2024/02/16 09:49:19;;;;;;;5.43;3.80;;;;;;;14.73;75.38;98044.81;5096586;28;20210;-82
2024/02/16 09:51:46;;;;;;;5.85;4.32;;;;;;;14.80;74.31;98042.47;5096101;28;20787;-81
2024/02/16 09:54:13;;;;;;;4.80;3.83;;;;;;;14.82;73.64;98037.84;5096124;28;20217;-81
2024/02/16 09:56:39;;;;;;;4.90;3.53;;;;;;;14.84;72.87;98043.91;5096052;28;20220;-81
2024/02/16 09:59:08;;;;;;;5.30;4.00;;;;;;;14.91;72.75;98056.50;5094007;28;20220;-79
2024/02/16 10:01:34;;;;;;;6.00;3.70;;;;;;;15.07;72.79;98061.31;5092447;28;20237;-79
2024/02/16 10:04:06;;;;;;;4.15;3.30;;;;;;;15.20;71.98;98054.78;5091411;28;20421;-79
2024/02/16 10:06:46;;;;;;;3.87;3.00;;;;;;;15.35;71.84;98053.47;5092506;28;20218;-79
2024/02/16 10:09:23;;;;;;;4.33;3.10;;;;;;;15.43;71.42;98050.09;5096239;28;20216;-79
2024/02/16 10:11:49;;;;;;;5.50;3.47;;;;;;;15.55;66.97;98023.19;5096363;28;20226;-79
2024/02/16 10:14:16;;;;;;;4.30;3.50;;;;;;;15.71;66.50;98022.66;5097947;28;20232;-80
2024/02/16 10:16:43;;;;;;;3.80;3.20;;;;;;;15.87;66.17;98028.22;5098599;28;20581;-81
2024/02/16 10:19:10;;;;;;;6.10;3.03;;;;;;;15.97;64.81;98026.41;5099677;28;20587;-80
2024/02/16 10:21:39;;;;;;;3.07;2.43;;;;;;;16.02;64.15;98026.84;5100057;28;20227;-80
2024/02/16 10:24:08;;;;;;;3.93;2.30;;;;;;;16.07;63.75;98021.91;5099327;28;20232;-80
2024/02/16 10:26:37;;;;;;;2.40;2.10;;;;;;;16.01;64.32;98027.81;5097007;28;20206;-79
2024/02/16 10:29:04;;;;;;;2.93;2.47;;;;;;;16.01;65.11;98039.31;5095481;28;20207;-80
2024/02/16 10:31:32;;;;;;;4.53;2.30;;;;;;;16.07;64.70;98035.25;5095785;28;20232;-79
2024/02/16 10:34:01;;;;;;;3.60;2.30;;;;;;;16.13;64.45;98035.50;5096539;28;20322;-78
2024/02/16 10:36:29;;;;;;;3.13;2.53;;;;;;;16.24;64.55;98046.88;5095858;28;20210;-79
2024/02/16 10:38:57;;;;;;;2.30;2.10;;;;;;;16.38;62.92;98034.94;5096403;28;20747;-79
2024/02/16 10:41:30;;;;;;;3.13;2.00;;;;;;;16.50;61.97;98026.63;5095785;28;20257;-79
2024/02/16 10:43:57;;;;;;;3.30;2.13;;;;;;;16.59;60.33;98009.72;5095573;28;20677;-80
2024/02/16 10:46:25;;;;;;;2.17;1.97;;;;;;;16.73;60.04;98008.41;5097514;28;20208;-81
2024/02/16 10:48:51;;;;;;;2.73;2.10;;;;;;;16.73;60.04;98011.94;5095638;28;20215;-80
2024/02/16 10:51:24;;;;;;;2.23;1.80;;;;;;;16.82;59.84;98012.88;5096497;28;20230;-79
2024/02/16 10:53:54;;;;;;;2.30;1.90;;;;;;;16.73;59.84;98019.09;5096257;28;20583;-78
2024/02/16 10:56:33;;;;;;;2.47;1.93;;;;;;;16.72;61.12;98044.97;5096517;28;20215;-79
2024/02/16 10:59:02;;;;;;;2.87;1.47;;;;;;;16.71;62.11;98053.94;5097519;28;20220;-79
2024/02/16 11:01:32;;;;;;;2.97;2.07;;;;;;;16.59;61.80;98043.59;5097409;28;20261;-78
2024/02/16 11:04:03;;;;;;;2.80;1.60;;;;;;;16.58;59.36;98015.22;5096583;28;20211;-78
2024/02/16 11:06:29;;;;;;;2.47;1.73;;;;;;;16.60;58.31;98003.44;5095297;28;20226;-79
2024/02/16 11:09:02;;;;;;;2.37;1.73;;;;;;;16.60;59.13;98018.59;5094894;28;20203;-79
2024/02/16 11:11:30;;;;;;;2.10;1.40;;;;;;;16.51;57.43;97998.13;5093172;28;20265;-79
2024/02/16 11:13:58;;;;;;;1.73;1.20;;;;;;;16.52;57.19;97992.63;5094273;28;20230;-78
2024/02/16 11:16:25;;;;;;;1.73;1.20;;;;;;;16.54;57.92;98004.00;5100434;28;20274;-79
2024/02/16 11:18:52;;;;;;;2.43;1.50;;;;;;;16.80;56.74;97986.34;5095600;28;20699;-79
2024/02/16 11:21:18;;;;;;;2.60;1.70;;;;;;;16.82;55.94;97981.69;5095100;28;20239;-78
2024/02/16 11:23:45;;;;;;;2.13;1.27;;;;;;;16.77;56.02;97978.59;5095241;28;20208;-79
2024/02/16 11:26:13;;;;;;;3.17;1.60;;;;;;;16.65;56.12;97979.78;5094953;28;20198;-79
2024/02/16 11:28:42;;;;;;;1.97;1.20;;;;;;;16.60;56.51;97992.75;5094945;28;20229;-78
2024/02/16 11:31:09;;;;;;;2.10;1.47;;;;;;;16.71;56.99;97995.22;5094762;28;20216;-79
2024/02/16 11:33:36;;;;;;;3.00;1.70;;;;;;;16.78;56.05;97979.47;5094715;28;20657;-79